sensor_id;sensor_type;location;lat;lon;timestamp;temperature;humidity
5258;DHT22;2651;51.594;9.928;2023-05-14T00:00:06;12.50;1.00
5258;DHT22;2651;51.594;9.928;2023-05-14T00:01:08;12.50;1.00
5258;DHT22;2651;51.594;9.928;2023-05-14T00:02:10;12.50;1.00
5258;DHT22;2651;51.594;9.928;2023-05-14T00:03:12;12.50;1.00
5258;DHT22;2651;51.594;9.928;2023-05-14T00:04:13;12.50;1.00
5258;DHT22;2651;51.594;9.928;2023-05-14T00:05:15;12.50;1.00
5258;DHT22;2651;51.594;9.928;2023-05-14T00:06:17;12.50;1.00
5258;DHT22;2651;51.594;9.928;2023-05-14T00:07:18;12.40;1.00
5258;DHT22;2651;51.594;9.928;2023-05-14T00:08:20;12.40;1.00
5258;DHT22;2651;51.594;9.928;2023-05-14T00:09:22;12.40;1.00
5258;DHT22;2651;51.594;9.928;2023-05-14T00:10:24;12.40;1.00
5258;DHT22;2651;51.594;9.928;2023-05-14T00:11:26;12.30;1.00
5258;DHT22;2651;51.594;9.928;2023-05-14T00:12:28;12.30;1.00
5258;DHT22;2651;51.594;9.928;2023-05-14T00:13:30;12.30;1.00
5258;DHT22;2651;51.594;9.928;2023-05-14T00:14:32;12.30;1.00
5258;DHT22;2651;51.594;9.928;2023-05-14T00:15:33;12.20;1.00
5258;DHT22;2651;51.594;9.928;2023-05-14T00:16:35;12.20;1.00
5258;DHT22;2651;51.594;9.928;2023-05-14T00:17:37;12.20;1.00
5258;DHT22;2651;51.594;9.928;2023-05-14T00:18:39;12.10;99.90
5258;DHT22;2651;51.594;9.928;2023-05-14T00:19:40;12.10;99.90
5258;DHT22;2651;51.594;9.928;2023-05-14T00:20:43;12.10;99.90
5258;DHT22;2651;51.594;9.928;2023-05-14T00:21:45;12.00;99.90
5258;DHT22;2651;51.594;9.928;2023-05-14T00:22:47;12.00;99.90
5258;DHT22;2651;51.594;9.928;2023-05-14T00:23:48;12.00;1.00
5258;DHT22;2651;51.594;9.928;2023-05-14T00:24:50;12.00;1.00
5258;DHT22;2651;51.594;9.928;2023-05-14T00:25:52;12.00;1.00
5258;DHT22;2651;51.594;9.928;2023-05-14T00:26:53;12.00;1.00
5258;DHT22;2651;51.594;9.928;2023-05-14T00:27:55;11.90;1.00
5258;DHT22;2651;51.594;9.928;2023-05-14T00:28:56;11.90;1.00
5258;DHT22;2651;51.594;9.928;2023-05-14T00:29:58;11.90;1.00
5258;DHT22;2651;51.594;9.928;2023-05-14T00:31:00;11.90;99.90
5258;DHT22;2651;51.594;9.928;2023-05-14T00:32:02;11.90;1.00
5258;DHT22;2651;51.594;9.928;2023-05-14T00:33:04;11.90;1.00
5258;DHT22;2651;51.594;9.928;2023-05-14T00:34:06;11.90;99.90
5258;DHT22;2651;51.594;9.928;2023-05-14T00:35:08;11.90;1.00
5258;DHT22;2651;51.594;9.928;2023-05-14T00:36:09;11.90;99.90
5258;DHT22;2651;51.594;9.928;2023-05-14T00:37:11;11.90;99.90
5258;DHT22;2651;51.594;9.928;2023-05-14T00:38:12;11.80;99.90
5258;DHT22;2651;51.594;9.928;2023-05-14T00:39:17;11.90;99.90
5258;DHT22;2651;51.594;9.928;2023-05-14T00:40:19;11.80;99.90
5258;DHT22;2651;51.594;9.928;2023-05-14T00:41:21;11.80;99.90
5258;DHT22;2651;51.594;9.928;2023-05-14T00:42:23;11.70;99.90
5258;DHT22;2651;51.594;9.928;2023-05-14T00:43:25;11.80;99.90
5258;DHT22;2651;51.594;9.928;2023-05-14T00:44:26;11.70;99.90
5258;DHT22;2651;51.594;9.928;2023-05-14T00:54:39;11.40;1.00
5258;DHT22;2651;51.594;9.928;2023-05-14T00:55:41;11.30;79.80
5258;DHT22;2651;51.594;9.928;2023-05-14T00:56:46;11.30;1.00
5258;DHT22;2651;51.594;9.928;2023-05-14T00:58:51;11.30;99.90
5258;DHT22;2651;51.594;9.928;2023-05-14T00:59:53;11.20;1.00
5258;DHT22;2651;51.594;9.928;2023-05-14T01:00:54;11.20;99.90
5258;DHT22;2651;51.594;9.928;2023-05-14T01:01:56;11.20;99.90
5258;DHT22;2651;51.594;9.928;2023-05-14T01:02:58;11.20;1.00
5258;DHT22;2651;51.594;9.928;2023-05-14T01:04:02;11.30;1.00
5258;DHT22;2651;51.594;9.928;2023-05-14T01:05:04;11.20;99.90
5258;DHT22;2651;51.594;9.928;2023-05-14T01:06:16;11.30;99.90
5258;DHT22;2651;51.594;9.928;2023-05-14T01:08:55;11.40;1.00
5258;DHT22;2651;51.594;9.928;2023-05-14T01:10:18;11.40;1.00
5258;DHT22;2651;51.594;9.928;2023-05-14T01:11:28;11.30;1.00
5258;DHT22;2651;51.594;9.928;2023-05-14T01:14:01;11.40;1.00
5258;DHT22;2651;51.594;9.928;2023-05-14T01:15:25;11.40;1.00
5258;DHT22;2651;51.594;9.928;2023-05-14T01:16:30;11.40;1.00
5258;DHT22;2651;51.594;9.928;2023-05-14T01:17:39;11.30;99.90
5258;DHT22;2651;51.594;9.928;2023-05-14T01:18:42;11.30;99.90
5258;DHT22;2651;51.594;9.928;2023-05-14T01:19:47;11.20;99.90
5258;DHT22;2651;51.594;9.928;2023-05-14T01:20:49;11.30;99.90
5258;DHT22;2651;51.594;9.928;2023-05-14T01:21:52;11.20;1.00
5258;DHT22;2651;51.594;9.928;2023-05-14T01:22:54;11.20;99.90
5258;DHT22;2651;51.594;9.928;2023-05-14T01:23:55;11.20;99.90
5258;DHT22;2651;51.594;9.928;2023-05-14T01:24:57;11.20;1.00
5258;DHT22;2651;51.594;9.928;2023-05-14T01:25:59;11.20;1.00
5258;DHT22;2651;51.594;9.928;2023-05-14T01:27:16;11.20;1.00
5258;DHT22;2651;51.594;9.928;2023-05-14T01:28:21;11.20;1.00
5258;DHT22;2651;51.594;9.928;2023-05-14T01:29:28;11.20;99.90
5258;DHT22;2651;51.594;9.928;2023-05-14T01:30:36;11.30;99.90
5258;DHT22;2651;51.594;9.928;2023-05-14T01:31:39;11.20;99.90
5258;DHT22;2651;51.594;9.928;2023-05-14T01:32:46;11.30;99.90
5258;DHT22;2651;51.594;9.928;2023-05-14T01:33:48;11.30;15.50
5258;DHT22;2651;51.594;9.928;2023-05-14T01:34:51;11.30;1.00
5258;DHT22;2651;51.594;9.928;2023-05-14T01:35:53;11.30;1.00
5258;DHT22;2651;51.594;9.928;2023-05-14T01:36:56;11.40;1.00
5258;DHT22;2651;51.594;9.928;2023-05-14T01:38:04;11.30;1.00
5258;DHT22;2651;51.594;9.928;2023-05-14T01:39:07;11.20;99.90
5258;DHT22;2651;51.594;9.928;2023-05-14T01:40:10;11.00;1.00
5258;DHT22;2651;51.594;9.928;2023-05-14T01:41:12;11.00;99.90
5258;DHT22;2651;51.594;9.928;2023-05-14T01:42:14;11.00;1.00
5258;DHT22;2651;51.594;9.928;2023-05-14T01:43:16;10.90;1.00
5258;DHT22;2651;51.594;9.928;2023-05-14T01:44:20;11.00;1.00
5258;DHT22;2651;51.594;9.928;2023-05-14T01:45:22;11.00;1.00
5258;DHT22;2651;51.594;9.928;2023-05-14T01:46:24;11.00;1.00
5258;DHT22;2651;51.594;9.928;2023-05-14T01:47:26;11.00;1.00
5258;DHT22;2651;51.594;9.928;2023-05-14T01:48:27;11.00;1.00
5258;DHT22;2651;51.594;9.928;2023-05-14T01:49:30;11.00;1.00
5258;DHT22;2651;51.594;9.928;2023-05-14T01:50:32;11.00;1.00
5258;DHT22;2651;51.594;9.928;2023-05-14T01:51:34;11.00;1.00
5258;DHT22;2651;51.594;9.928;2023-05-14T01:52:36;11.00;1.00
5258;DHT22;2651;51.594;9.928;2023-05-14T01:53:37;11.00;1.00
5258;DHT22;2651;51.594;9.928;2023-05-14T01:54:39;11.00;1.00
5258;DHT22;2651;51.594;9.928;2023-05-14T01:55:41;11.00;1.00
5258;DHT22;2651;51.594;9.928;2023-05-14T01:56:42;10.90;1.00
5258;DHT22;2651;51.594;9.928;2023-05-14T01:57:44;11.00;1.00
5258;DHT22;2651;51.594;9.928;2023-05-14T01:58:46;11.10;1.00
5258;DHT22;2651;51.594;9.928;2023-05-14T01:59:47;11.00;1.00
5258;DHT22;2651;51.594;9.928;2023-05-14T02:00:49;11.00;1.00
5258;DHT22;2651;51.594;9.928;2023-05-14T02:01:50;10.90;1.00
5258;DHT22;2651;51.594;9.928;2023-05-14T02:02:52;11.00;1.00
5258;DHT22;2651;51.594;9.928;2023-05-14T02:03:54;11.00;1.00
5258;DHT22;2651;51.594;9.928;2023-05-14T02:04:57;11.00;1.00
5258;DHT22;2651;51.594;9.928;2023-05-14T02:05:59;10.90;1.00
5258;DHT22;2651;51.594;9.928;2023-05-14T02:07:00;10.90;1.00
5258;DHT22;2651;51.594;9.928;2023-05-14T02:08:02;10.90;1.00
5258;DHT22;2651;51.594;9.928;2023-05-14T02:09:04;10.90;1.00
5258;DHT22;2651;51.594;9.928;2023-05-14T02:10:06;10.90;1.00
5258;DHT22;2651;51.594;9.928;2023-05-14T02:11:08;10.90;1.00
5258;DHT22;2651;51.594;9.928;2023-05-14T02:12:09;10.90;1.00
5258;DHT22;2651;51.594;9.928;2023-05-14T02:13:12;11.00;1.00
5258;DHT22;2651;51.594;9.928;2023-05-14T02:14:13;11.00;1.00
5258;DHT22;2651;51.594;9.928;2023-05-14T02:15:16;11.00;1.00
5258;DHT22;2651;51.594;9.928;2023-05-14T02:16:17;11.00;1.00
5258;DHT22;2651;51.594;9.928;2023-05-14T02:17:19;11.00;1.00
5258;DHT22;2651;51.594;9.928;2023-05-14T02:18:21;11.00;1.00
5258;DHT22;2651;51.594;9.928;2023-05-14T02:19:22;10.90;1.00
5258;DHT22;2651;51.594;9.928;2023-05-14T02:20:24;10.90;1.00
5258;DHT22;2651;51.594;9.928;2023-05-14T02:21:26;10.80;56.10
5258;DHT22;2651;51.594;9.928;2023-05-14T02:22:28;10.90;47.10
5258;DHT22;2651;51.594;9.928;2023-05-14T02:23:29;10.90;27.20
5258;DHT22;2651;51.594;9.928;2023-05-14T02:24:41;10.90;1.00
5258;DHT22;2651;51.594;9.928;2023-05-14T02:25:43;11.00;1.00
5258;DHT22;2651;51.594;9.928;2023-05-14T02:26:45;11.10;4.30
5258;DHT22;2651;51.594;9.928;2023-05-14T02:27:47;11.00;1.00
5258;DHT22;2651;51.594;9.928;2023-05-14T02:28:49;11.00;1.00
5258;DHT22;2651;51.594;9.928;2023-05-14T02:29:51;10.80;1.00
5258;DHT22;2651;51.594;9.928;2023-05-14T02:30:58;10.80;1.00
5258;DHT22;2651;51.594;9.928;2023-05-14T02:32:00;10.80;41.70
5258;DHT22;2651;51.594;9.928;2023-05-14T02:33:01;10.80;99.90
5258;DHT22;2651;51.594;9.928;2023-05-14T02:34:04;10.80;26.10
5258;DHT22;2651;51.594;9.928;2023-05-14T02:35:07;10.70;98.20
5258;DHT22;2651;51.594;9.928;2023-05-14T02:36:09;10.70;99.90
5258;DHT22;2651;51.594;9.928;2023-05-14T02:37:10;10.70;99.90
5258;DHT22;2651;51.594;9.928;2023-05-14T02:38:12;10.60;99.90
5258;DHT22;2651;51.594;9.928;2023-05-14T02:39:14;10.60;99.90
5258;DHT22;2651;51.594;9.928;2023-05-14T02:40:15;10.70;99.90
5258;DHT22;2651;51.594;9.928;2023-05-14T02:41:17;10.70;99.90
5258;DHT22;2651;51.594;9.928;2023-05-14T02:42:18;10.80;99.90
5258;DHT22;2651;51.594;9.928;2023-05-14T02:43:20;10.80;99.90
5258;DHT22;2651;51.594;9.928;2023-05-14T02:44:22;10.80;99.90
5258;DHT22;2651;51.594;9.928;2023-05-14T02:45:23;10.80;99.90
5258;DHT22;2651;51.594;9.928;2023-05-14T02:46:25;10.90;99.90
5258;DHT22;2651;51.594;9.928;2023-05-14T02:47:27;10.90;99.90
5258;DHT22;2651;51.594;9.928;2023-05-14T02:48:29;10.90;99.90
5258;DHT22;2651;51.594;9.928;2023-05-14T02:49:30;10.90;90.10
5258;DHT22;2651;51.594;9.928;2023-05-14T02:50:32;10.90;86.20
5258;DHT22;2651;51.594;9.928;2023-05-14T02:51:33;10.80;65.80
5258;DHT22;2651;51.594;9.928;2023-05-14T02:52:35;10.70;99.90
5258;DHT22;2651;51.594;9.928;2023-05-14T02:53:37;10.80;99.90
5258;DHT22;2651;51.594;9.928;2023-05-14T02:54:38;10.80;99.90
5258;DHT22;2651;51.594;9.928;2023-05-14T02:55:40;10.90;98.40
5258;DHT22;2651;51.594;9.928;2023-05-14T02:56:41;10.90;78.90
5258;DHT22;2651;51.594;9.928;2023-05-14T02:57:43;10.90;15.90
5258;DHT22;2651;51.594;9.928;2023-05-14T02:58:45;10.80;27.80
5258;DHT22;2651;51.594;9.928;2023-05-14T02:59:46;10.90;60.90
5258;DHT22;2651;51.594;9.928;2023-05-14T03:00:48;10.90;27.80
5258;DHT22;2651;51.594;9.928;2023-05-14T03:01:50;10.80;1.00
5258;DHT22;2651;51.594;9.928;2023-05-14T03:02:53;10.80;1.00
5258;DHT22;2651;51.594;9.928;2023-05-14T03:03:55;10.90;35.30
5258;DHT22;2651;51.594;9.928;2023-05-14T03:04:57;10.80;1.00
5258;DHT22;2651;51.594;9.928;2023-05-14T03:05:58;10.80;1.00
5258;DHT22;2651;51.594;9.928;2023-05-14T03:07:00;10.90;1.00
5258;DHT22;2651;51.594;9.928;2023-05-14T03:08:01;10.90;1.00
5258;DHT22;2651;51.594;9.928;2023-05-14T03:09:03;10.80;1.00
5258;DHT22;2651;51.594;9.928;2023-05-14T03:10:05;10.80;1.00
5258;DHT22;2651;51.594;9.928;2023-05-14T03:11:07;10.80;1.00
5258;DHT22;2651;51.594;9.928;2023-05-14T03:12:08;10.70;1.00
5258;DHT22;2651;51.594;9.928;2023-05-14T03:13:10;10.70;1.00
5258;DHT22;2651;51.594;9.928;2023-05-14T03:14:11;10.70;1.00
5258;DHT22;2651;51.594;9.928;2023-05-14T03:15:13;10.80;1.00
5258;DHT22;2651;51.594;9.928;2023-05-14T03:16:15;10.80;1.00
5258;DHT22;2651;51.594;9.928;2023-05-14T03:17:16;10.80;1.00
5258;DHT22;2651;51.594;9.928;2023-05-14T03:18:18;10.80;1.00
5258;DHT22;2651;51.594;9.928;2023-05-14T03:19:20;10.80;1.00
5258;DHT22;2651;51.594;9.928;2023-05-14T03:20:23;10.90;1.00
5258;DHT22;2651;51.594;9.928;2023-05-14T03:21:25;10.80;1.00
5258;DHT22;2651;51.594;9.928;2023-05-14T03:22:27;10.80;1.00
5258;DHT22;2651;51.594;9.928;2023-05-14T03:23:29;10.80;1.00
5258;DHT22;2651;51.594;9.928;2023-05-14T03:24:33;10.80;1.00
5258;DHT22;2651;51.594;9.928;2023-05-14T03:25:35;10.80;1.00
5258;DHT22;2651;51.594;9.928;2023-05-14T03:26:37;10.80;1.00
5258;DHT22;2651;51.594;9.928;2023-05-14T03:27:39;10.80;1.00
5258;DHT22;2651;51.594;9.928;2023-05-14T03:28:40;10.80;1.00
5258;DHT22;2651;51.594;9.928;2023-05-14T03:29:42;10.90;1.00
5258;DHT22;2651;51.594;9.928;2023-05-14T03:30:43;10.90;1.00
5258;DHT22;2651;51.594;9.928;2023-05-14T03:31:45;10.80;1.00
5258;DHT22;2651;51.594;9.928;2023-05-14T03:32:47;10.80;1.00
5258;DHT22;2651;51.594;9.928;2023-05-14T03:33:48;10.80;1.00
5258;DHT22;2651;51.594;9.928;2023-05-14T03:34:50;10.90;1.00
5258;DHT22;2651;51.594;9.928;2023-05-14T03:35:52;10.90;1.00
5258;DHT22;2651;51.594;9.928;2023-05-14T03:36:53;10.90;1.00
5258;DHT22;2651;51.594;9.928;2023-05-14T03:37:55;10.90;1.00
5258;DHT22;2651;51.594;9.928;2023-05-14T03:38:59;10.90;1.00
5258;DHT22;2651;51.594;9.928;2023-05-14T03:40:01;10.80;1.00
5258;DHT22;2651;51.594;9.928;2023-05-14T03:41:02;10.80;1.00
5258;DHT22;2651;51.594;9.928;2023-05-14T03:42:04;10.80;21.90
5258;DHT22;2651;51.594;9.928;2023-05-14T03:43:06;10.80;72.30
5258;DHT22;2651;51.594;9.928;2023-05-14T03:44:07;10.80;1.40
5258;DHT22;2651;51.594;9.928;2023-05-14T03:45:09;10.80;1.00
5258;DHT22;2651;51.594;9.928;2023-05-14T03:46:11;10.80;1.00
5258;DHT22;2651;51.594;9.928;2023-05-14T03:47:12;10.80;5.00
5258;DHT22;2651;51.594;9.928;2023-05-14T03:48:14;10.80;1.00
5258;DHT22;2651;51.594;9.928;2023-05-14T03:49:16;10.80;17.40
5258;DHT22;2651;51.594;9.928;2023-05-14T03:50:17;10.80;16.50
5258;DHT22;2651;51.594;9.928;2023-05-14T03:51:19;10.80;28.80
5258;DHT22;2651;51.594;9.928;2023-05-14T03:52:21;10.70;1.00
5258;DHT22;2651;51.594;9.928;2023-05-14T03:53:22;10.70;1.00
5258;DHT22;2651;51.594;9.928;2023-05-14T03:54:25;10.70;2.80
5258;DHT22;2651;51.594;9.928;2023-05-14T03:55:26;10.70;15.70
5258;DHT22;2651;51.594;9.928;2023-05-14T03:56:28;10.80;1.00
5258;DHT22;2651;51.594;9.928;2023-05-14T03:57:30;10.80;15.20
5258;DHT22;2651;51.594;9.928;2023-05-14T03:58:31;10.80;9.20
5258;DHT22;2651;51.594;9.928;2023-05-14T03:59:33;10.90;38.80
5258;DHT22;2651;51.594;9.928;2023-05-14T04:00:35;10.90;1.00
5258;DHT22;2651;51.594;9.928;2023-05-14T04:01:36;10.90;1.00
5258;DHT22;2651;51.594;9.928;2023-05-14T04:02:38;10.90;1.00
5258;DHT22;2651;51.594;9.928;2023-05-14T04:03:40;11.00;1.00
5258;DHT22;2651;51.594;9.928;2023-05-14T04:04:42;11.00;1.00
5258;DHT22;2651;51.594;9.928;2023-05-14T04:05:44;11.00;1.00
5258;DHT22;2651;51.594;9.928;2023-05-14T04:06:46;11.00;1.00
5258;DHT22;2651;51.594;9.928;2023-05-14T04:07:48;11.00;1.00
5258;DHT22;2651;51.594;9.928;2023-05-14T04:08:49;11.00;1.00
5258;DHT22;2651;51.594;9.928;2023-05-14T04:09:51;11.00;1.00
5258;DHT22;2651;51.594;9.928;2023-05-14T04:10:53;11.00;99.90
5258;DHT22;2651;51.594;9.928;2023-05-14T04:11:54;11.00;99.90
5258;DHT22;2651;51.594;9.928;2023-05-14T04:12:56;11.00;14.10
5258;DHT22;2651;51.594;9.928;2023-05-14T04:13:57;11.00;1.00
5258;DHT22;2651;51.594;9.928;2023-05-14T04:14:59;11.00;99.90
5258;DHT22;2651;51.594;9.928;2023-05-14T04:16:01;11.00;99.90
5258;DHT22;2651;51.594;9.928;2023-05-14T04:17:03;11.00;1.00
5258;DHT22;2651;51.594;9.928;2023-05-14T04:18:04;11.00;1.00
5258;DHT22;2651;51.594;9.928;2023-05-14T04:19:06;11.00;99.90
5258;DHT22;2651;51.594;9.928;2023-05-14T04:20:08;11.00;1.00
5258;DHT22;2651;51.594;9.928;2023-05-14T04:21:10;11.00;99.90
5258;DHT22;2651;51.594;9.928;2023-05-14T04:22:12;10.90;1.00
5258;DHT22;2651;51.594;9.928;2023-05-14T04:23:14;10.90;1.00
5258;DHT22;2651;51.594;9.928;2023-05-14T04:24:16;10.80;1.00
5258;DHT22;2651;51.594;9.928;2023-05-14T04:25:17;10.80;1.00
5258;DHT22;2651;51.594;9.928;2023-05-14T04:26:19;10.80;1.00
5258;DHT22;2651;51.594;9.928;2023-05-14T04:27:22;10.80;1.00
5258;DHT22;2651;51.594;9.928;2023-05-14T04:28:23;10.70;1.00
5258;DHT22;2651;51.594;9.928;2023-05-14T04:29:25;10.70;1.00
5258;DHT22;2651;51.594;9.928;2023-05-14T04:30:27;10.70;6.00
5258;DHT22;2651;51.594;9.928;2023-05-14T04:31:29;10.70;68.50
5258;DHT22;2651;51.594;9.928;2023-05-14T04:32:32;10.70;99.90
5258;DHT22;2651;51.594;9.928;2023-05-14T04:33:34;10.70;99.90
5258;DHT22;2651;51.594;9.928;2023-05-14T04:34:35;10.70;99.90
5258;DHT22;2651;51.594;9.928;2023-05-14T04:35:37;10.70;99.90
5258;DHT22;2651;51.594;9.928;2023-05-14T04:36:38;10.80;99.90
5258;DHT22;2651;51.594;9.928;2023-05-14T04:37:40;10.80;99.90
5258;DHT22;2651;51.594;9.928;2023-05-14T04:38:42;10.80;71.20
5258;DHT22;2651;51.594;9.928;2023-05-14T04:39:43;10.70;80.30
5258;DHT22;2651;51.594;9.928;2023-05-14T04:40:45;10.70;99.90
5258;DHT22;2651;51.594;9.928;2023-05-14T04:41:47;10.70;99.90
5258;DHT22;2651;51.594;9.928;2023-05-14T04:42:48;10.70;99.90
5258;DHT22;2651;51.594;9.928;2023-05-14T04:43:50;10.80;99.90
5258;DHT22;2651;51.594;9.928;2023-05-14T04:44:55;10.80;99.90
5258;DHT22;2651;51.594;9.928;2023-05-14T04:45:57;10.90;99.90
5258;DHT22;2651;51.594;9.928;2023-05-14T04:46:59;10.90;99.90
5258;DHT22;2651;51.594;9.928;2023-05-14T04:48:04;11.00;99.90
5258;DHT22;2651;51.594;9.928;2023-05-14T04:49:08;11.00;99.90
5258;DHT22;2651;51.594;9.928;2023-05-14T04:50:09;11.00;99.90
5258;DHT22;2651;51.594;9.928;2023-05-14T04:51:11;11.00;90.40
5258;DHT22;2651;51.594;9.928;2023-05-14T04:52:13;11.00;82.70
5258;DHT22;2651;51.594;9.928;2023-05-14T04:53:14;11.00;99.90
5258;DHT22;2651;51.594;9.928;2023-05-14T04:54:16;11.00;99.90
5258;DHT22;2651;51.594;9.928;2023-05-14T04:55:18;11.00;99.90
5258;DHT22;2651;51.594;9.928;2023-05-14T04:56:19;11.00;99.90
5258;DHT22;2651;51.594;9.928;2023-05-14T04:57:21;10.90;53.70
5258;DHT22;2651;51.594;9.928;2023-05-14T04:58:23;11.00;99.90
5258;DHT22;2651;51.594;9.928;2023-05-14T04:59:25;11.00;99.90
5258;DHT22;2651;51.594;9.928;2023-05-14T05:00:27;11.00;99.90
5258;DHT22;2651;51.594;9.928;2023-05-14T05:01:29;11.10;99.90
5258;DHT22;2651;51.594;9.928;2023-05-14T05:02:30;11.00;96.70
5258;DHT22;2651;51.594;9.928;2023-05-14T05:03:32;11.00;97.70
5258;DHT22;2651;51.594;9.928;2023-05-14T05:04:34;10.90;99.90
5258;DHT22;2651;51.594;9.928;2023-05-14T05:05:35;11.00;99.90
5258;DHT22;2651;51.594;9.928;2023-05-14T05:06:37;11.00;99.90
5258;DHT22;2651;51.594;9.928;2023-05-14T05:07:39;11.00;99.90
5258;DHT22;2651;51.594;9.928;2023-05-14T05:08:40;11.00;99.90
5258;DHT22;2651;51.594;9.928;2023-05-14T05:09:42;11.10;99.90
5258;DHT22;2651;51.594;9.928;2023-05-14T05:10:44;11.10;99.90
5258;DHT22;2651;51.594;9.928;2023-05-14T05:11:46;11.10;52.80
5258;DHT22;2651;51.594;9.928;2023-05-14T05:12:47;11.10;40.90
5258;DHT22;2651;51.594;9.928;2023-05-14T05:13:49;11.10;81.80
5258;DHT22;2651;51.594;9.928;2023-05-14T05:14:51;11.20;99.90
5258;DHT22;2651;51.594;9.928;2023-05-14T05:15:52;11.30;99.90
5258;DHT22;2651;51.594;9.928;2023-05-14T05:16:54;11.30;21.10
5258;DHT22;2651;51.594;9.928;2023-05-14T05:17:56;11.30;1.00
5258;DHT22;2651;51.594;9.928;2023-05-14T05:18:58;11.20;1.00
5258;DHT22;2651;51.594;9.928;2023-05-14T05:19:59;11.30;1.00
5258;DHT22;2651;51.594;9.928;2023-05-14T05:21:01;11.40;1.00
5258;DHT22;2651;51.594;9.928;2023-05-14T05:22:03;11.40;1.00
5258;DHT22;2651;51.594;9.928;2023-05-14T05:23:04;11.40;1.00
5258;DHT22;2651;51.594;9.928;2023-05-14T05:24:07;11.40;1.00
5258;DHT22;2651;51.594;9.928;2023-05-14T05:25:09;11.50;1.00
5258;DHT22;2651;51.594;9.928;2023-05-14T05:26:13;11.50;1.00
5258;DHT22;2651;51.594;9.928;2023-05-14T05:27:14;11.50;1.00
5258;DHT22;2651;51.594;9.928;2023-05-14T05:28:16;11.50;1.00
5258;DHT22;2651;51.594;9.928;2023-05-14T05:29:18;11.50;1.00
5258;DHT22;2651;51.594;9.928;2023-05-14T05:30:19;11.50;1.00
5258;DHT22;2651;51.594;9.928;2023-05-14T05:31:21;11.60;23.80
5258;DHT22;2651;51.594;9.928;2023-05-14T05:32:23;11.60;6.60
5258;DHT22;2651;51.594;9.928;2023-05-14T05:33:25;11.60;1.00
5258;DHT22;2651;51.594;9.928;2023-05-14T05:34:27;11.70;1.00
5258;DHT22;2651;51.594;9.928;2023-05-14T05:35:28;11.70;1.00
5258;DHT22;2651;51.594;9.928;2023-05-14T05:36:30;11.80;1.00
5258;DHT22;2651;51.594;9.928;2023-05-14T05:37:32;11.80;1.00
5258;DHT22;2651;51.594;9.928;2023-05-14T05:38:34;11.80;1.00
5258;DHT22;2651;51.594;9.928;2023-05-14T05:39:35;11.80;1.00
5258;DHT22;2651;51.594;9.928;2023-05-14T05:40:37;11.80;1.00
5258;DHT22;2651;51.594;9.928;2023-05-14T05:41:39;11.80;1.00
5258;DHT22;2651;51.594;9.928;2023-05-14T05:42:41;11.80;1.00
5258;DHT22;2651;51.594;9.928;2023-05-14T05:43:43;11.70;1.00
5258;DHT22;2651;51.594;9.928;2023-05-14T05:44:44;11.80;1.00
5258;DHT22;2651;51.594;9.928;2023-05-14T05:45:46;11.90;1.00
5258;DHT22;2651;51.594;9.928;2023-05-14T05:46:47;11.90;1.00
5258;DHT22;2651;51.594;9.928;2023-05-14T05:47:49;11.90;1.00
5258;DHT22;2651;51.594;9.928;2023-05-14T05:48:51;11.90;99.90
5258;DHT22;2651;51.594;9.928;2023-05-14T05:49:53;11.80;1.00
5258;DHT22;2651;51.594;9.928;2023-05-14T05:50:55;11.80;99.90
5258;DHT22;2651;51.594;9.928;2023-05-14T05:51:56;11.90;1.00
5258;DHT22;2651;51.594;9.928;2023-05-14T05:52:58;11.90;1.00
5258;DHT22;2651;51.594;9.928;2023-05-14T05:54:00;12.00;99.90
5258;DHT22;2651;51.594;9.928;2023-05-14T05:55:01;12.10;1.00
5258;DHT22;2651;51.594;9.928;2023-05-14T05:56:04;12.10;1.00
5258;DHT22;2651;51.594;9.928;2023-05-14T05:57:06;12.00;1.00
5258;DHT22;2651;51.594;9.928;2023-05-14T05:58:08;12.10;99.90
5258;DHT22;2651;51.594;9.928;2023-05-14T05:59:10;12.10;99.90
5258;DHT22;2651;51.594;9.928;2023-05-14T06:00:11;12.10;99.90
5258;DHT22;2651;51.594;9.928;2023-05-14T06:01:13;12.10;1.00
5258;DHT22;2651;51.594;9.928;2023-05-14T06:02:15;12.10;1.00
5258;DHT22;2651;51.594;9.928;2023-05-14T06:03:17;12.20;1.00
5258;DHT22;2651;51.594;9.928;2023-05-14T06:04:18;12.30;1.00
5258;DHT22;2651;51.594;9.928;2023-05-14T06:05:20;12.30;1.00
5258;DHT22;2651;51.594;9.928;2023-05-14T06:06:22;12.30;1.00
5258;DHT22;2651;51.594;9.928;2023-05-14T06:07:24;12.30;99.90
5258;DHT22;2651;51.594;9.928;2023-05-14T06:08:25;12.30;1.00
5258;DHT22;2651;51.594;9.928;2023-05-14T06:09:27;12.40;1.00
5258;DHT22;2651;51.594;9.928;2023-05-14T06:10:28;12.50;1.00
5258;DHT22;2651;51.594;9.928;2023-05-14T06:11:30;12.60;5.80
5258;DHT22;2651;51.594;9.928;2023-05-14T06:12:32;12.60;1.00
5258;DHT22;2651;51.594;9.928;2023-05-14T06:13:33;12.60;99.90
5258;DHT22;2651;51.594;9.928;2023-05-14T06:14:35;12.70;1.00
5258;DHT22;2651;51.594;9.928;2023-05-14T06:15:37;12.60;1.00
5258;DHT22;2651;51.594;9.928;2023-05-14T06:16:38;12.60;1.00
5258;DHT22;2651;51.594;9.928;2023-05-14T06:17:40;12.70;99.90
5258;DHT22;2651;51.594;9.928;2023-05-14T06:18:41;12.70;14.10
5258;DHT22;2651;51.594;9.928;2023-05-14T06:19:43;12.60;1.00
5258;DHT22;2651;51.594;9.928;2023-05-14T06:20:45;12.80;1.00
5258;DHT22;2651;51.594;9.928;2023-05-14T06:21:46;12.80;1.00
5258;DHT22;2651;51.594;9.928;2023-05-14T06:22:48;12.90;99.90
5258;DHT22;2651;51.594;9.928;2023-05-14T06:23:50;12.90;83.80
5258;DHT22;2651;51.594;9.928;2023-05-14T06:24:51;12.90;1.00
5258;DHT22;2651;51.594;9.928;2023-05-14T06:25:53;12.90;1.00
5258;DHT22;2651;51.594;9.928;2023-05-14T06:26:54;13.00;1.00
5258;DHT22;2651;51.594;9.928;2023-05-14T06:27:56;13.00;1.00
5258;DHT22;2651;51.594;9.928;2023-05-14T06:28:58;13.10;99.90
5258;DHT22;2651;51.594;9.928;2023-05-14T06:29:59;13.00;31.50
5258;DHT22;2651;51.594;9.928;2023-05-14T06:31:01;13.10;99.90
5258;DHT22;2651;51.594;9.928;2023-05-14T06:32:03;13.10;99.90
5258;DHT22;2651;51.594;9.928;2023-05-14T06:33:05;13.10;99.90
5258;DHT22;2651;51.594;9.928;2023-05-14T06:34:07;13.20;99.90
5258;DHT22;2651;51.594;9.928;2023-05-14T06:35:09;13.20;89.80
5258;DHT22;2651;51.594;9.928;2023-05-14T06:36:11;13.20;1.00
5258;DHT22;2651;51.594;9.928;2023-05-14T06:37:12;13.20;1.00
5258;DHT22;2651;51.594;9.928;2023-05-14T06:38:14;13.20;1.00
5258;DHT22;2651;51.594;9.928;2023-05-14T06:39:15;13.20;1.00
5258;DHT22;2651;51.594;9.928;2023-05-14T06:40:17;13.10;1.00
5258;DHT22;2651;51.594;9.928;2023-05-14T06:41:19;13.20;99.90
5258;DHT22;2651;51.594;9.928;2023-05-14T06:42:21;13.20;99.90
5258;DHT22;2651;51.594;9.928;2023-05-14T06:43:23;13.30;99.90
5258;DHT22;2651;51.594;9.928;2023-05-14T06:44:24;13.30;99.90
5258;DHT22;2651;51.594;9.928;2023-05-14T06:45:26;13.40;1.00
5258;DHT22;2651;51.594;9.928;2023-05-14T06:46:28;13.30;1.00
5258;DHT22;2651;51.594;9.928;2023-05-14T06:47:29;13.30;1.00
5258;DHT22;2651;51.594;9.928;2023-05-14T06:48:31;13.40;1.00
5258;DHT22;2651;51.594;9.928;2023-05-14T06:49:33;13.40;99.90
5258;DHT22;2651;51.594;9.928;2023-05-14T06:50:35;13.50;26.80
5258;DHT22;2651;51.594;9.928;2023-05-14T06:51:37;13.50;42.50
5258;DHT22;2651;51.594;9.928;2023-05-14T06:52:39;13.50;1.00
5258;DHT22;2651;51.594;9.928;2023-05-14T06:53:41;13.50;8.50
5258;DHT22;2651;51.594;9.928;2023-05-14T06:54:42;13.50;4.10
5258;DHT22;2651;51.594;9.928;2023-05-14T06:55:46;13.40;1.00
5258;DHT22;2651;51.594;9.928;2023-05-14T06:56:48;13.40;99.90
5258;DHT22;2651;51.594;9.928;2023-05-14T06:57:49;13.50;1.00
5258;DHT22;2651;51.594;9.928;2023-05-14T06:58:51;13.40;99.90
5258;DHT22;2651;51.594;9.928;2023-05-14T06:59:53;13.40;99.90
5258;DHT22;2651;51.594;9.928;2023-05-14T07:00:54;13.40;99.90
5258;DHT22;2651;51.594;9.928;2023-05-14T07:01:56;13.40;1.00
5258;DHT22;2651;51.594;9.928;2023-05-14T07:02:58;13.40;99.90